KCRG/CRG METAR and TAF weather

Enter ICAO airport designator
Station Type Date Time Source
KCRG METAR 2018/10/19 15:53 UTC NOAA

KCRG 191553Z 07007KT 10SM FEW025 28/22 A3024 RMK AO2 SLP238 T02830217


Station Type Date Time Source
KCRG Decoded METAR 2018/10/19 15:53 UTC NOAA

JACKSONVILLE CRAIG MUN, FL, United States (KCRG) 30-20N 81-31W 13M
Oct 19, 2018 - 11:53 AM EDT / 2018.10.19 1553 UTC
Wind: from the ENE (070 degrees) at 8 MPH (7 KT):0
Visibility: 10 mile(s):0
Sky conditions: mostly clear
Temperature: 82.9 F (28.3 C)
Dew Point: 71.1 F (21.7 C)
Relative Humidity: 67%
Pressure (altimeter): 30.24 in. Hg (1024 hPa)
ob: KCRG 191553Z 07007KT 10SM FEW025 28/22 A3024 RMK AO2 SLP238 T02830217
cycle: 16

Station Type Date Time Source
KCRG TAF 2018/10/19 15:36 UTC NOAA

TAF
AMD KCRG 191433Z 1915/2012 05008KT P6SM SCT030 BKN250
FM191700 06008KT P6SM VCSH SCT030 BKN050
FM200100 VRB03KT P6SM SCT050


Example: see airport list